createdAt,value
2022-12-07T00:01:40.239Z,100840.34
2022-12-07T00:04:08.818Z,100843.97
2022-12-07T00:06:40.734Z,100835.50
2022-12-07T00:09:10.742Z,100832.16
2022-12-07T00:11:37.353Z,100808.25
2022-12-07T00:14:07.727Z,100820.91
2022-12-07T00:16:36.791Z,100811.50
2022-12-07T00:19:04.002Z,100814.38
2022-12-07T00:21:36.477Z,100806.50
2022-12-07T00:24:05.961Z,100806.59
2022-12-07T00:26:38.008Z,100806.97
2022-12-07T00:29:14.121Z,100809.75
2022-12-07T00:31:40.915Z,100813.06
2022-12-07T00:34:12.657Z,100810.03
2022-12-07T00:36:39.317Z,100803.88
2022-12-07T00:39:06.013Z,100797.72
2022-12-07T00:41:32.682Z,100808.44
2022-12-07T00:43:59.323Z,100802.44
2022-12-07T00:46:26.704Z,100812.03
2022-12-07T00:48:54.561Z,100824.63
2022-12-07T00:51:23.210Z,100821.41
2022-12-07T00:53:50.401Z,100807.56
2022-12-07T00:56:20.504Z,100820.84
2022-12-07T00:58:54.918Z,100825.75
2022-12-07T01:01:21.984Z,100818.41
2022-12-07T01:03:49.150Z,100837.84
2022-12-07T01:06:17.853Z,100820.38
2022-12-07T01:08:45.111Z,100811.53
2022-12-07T01:11:15.558Z,100813.72
2022-12-07T01:13:42.945Z,100818.03
2022-12-07T01:16:12.578Z,100827.84
2022-12-07T01:18:40.166Z,100828.06
2022-12-07T01:21:36.483Z,100832.34
2022-12-07T01:24:04.450Z,100823.22
2022-12-07T01:26:31.102Z,100806.84
2022-12-07T01:29:00.098Z,100808.03
2022-12-07T01:31:28.081Z,100829.06
2022-12-07T01:33:58.014Z,100835.00
2022-12-07T01:36:25.985Z,100839.41
2022-12-07T01:38:57.724Z,100823.25
2022-12-07T01:41:27.060Z,100833.94
2022-12-07T01:44:33.674Z,100833.72
2022-12-07T01:47:02.829Z,100829.88
2022-12-07T01:49:55.553Z,100831.41
2022-12-07T01:52:29.226Z,100823.84
2022-12-07T01:55:00.501Z,100821.28
2022-12-07T01:57:27.430Z,100813.91
2022-12-07T01:59:56.597Z,100817.63
2022-12-07T02:02:32.841Z,100827.72
2022-12-07T02:05:02.085Z,100821.47
2022-12-07T02:07:29.111Z,100815.81
2022-12-07T02:09:55.976Z,100796.84
2022-12-07T02:12:25.020Z,100798.53
2022-12-07T02:14:52.814Z,100797.56
2022-12-07T02:17:26.280Z,100802.63
2022-12-07T02:20:31.938Z,100802.28
2022-12-07T02:23:14.225Z,100785.38
2022-12-07T02:26:29.365Z,100795.13
2022-12-07T02:29:33.148Z,100782.97
2022-12-07T02:32:16.855Z,100793.81
2022-12-07T02:34:51.399Z,100781.66
2022-12-07T02:37:27.020Z,100783.81
2022-12-07T02:40:08.848Z,100784.78
2022-12-07T02:42:41.044Z,100784.38
2022-12-07T02:45:09.782Z,100792.53
2022-12-07T02:47:37.944Z,100780.41
2022-12-07T02:50:06.810Z,100795.94
2022-12-07T02:52:33.907Z,100786.41
2022-12-07T02:55:00.613Z,100792.34
2022-12-07T02:57:48.010Z,100794.78
2022-12-07T03:00:21.139Z,100788.38
2022-12-07T03:02:55.411Z,100788.53
2022-12-07T03:05:40.800Z,100783.63
2022-12-07T03:08:28.983Z,100777.91
2022-12-07T03:11:06.035Z,100776.72
2022-12-07T03:13:35.949Z,100784.22
2022-12-07T03:16:17.970Z,100777.19
2022-12-07T03:18:57.897Z,100765.81
2022-12-07T03:21:28.011Z,100765.91
2022-12-07T03:24:01.117Z,100770.75
2022-12-07T03:26:35.540Z,100780.34
2022-12-07T03:29:11.262Z,100758.34
2022-12-07T03:31:44.156Z,100761.63
2022-12-07T03:34:35.403Z,100746.84
2022-12-07T03:41:02.875Z,100751.19
2022-12-07T03:43:31.143Z,100760.75
2022-12-07T03:46:00.690Z,100757.78
2022-12-07T03:48:47.898Z,100760.91
2022-12-07T03:51:23.685Z,100753.59
2022-12-07T03:53:58.022Z,100743.06
2022-12-07T03:56:26.922Z,100746.94
2022-12-07T03:58:54.916Z,100727.88
2022-12-07T04:01:21.836Z,100725.34
2022-12-07T04:03:48.533Z,100725.13
2022-12-07T04:06:15.279Z,100727.53
2022-12-07T04:08:42.025Z,100730.47
2022-12-07T04:11:08.901Z,100733.25
2022-12-07T04:13:55.682Z,100734.69
2022-12-07T04:16:22.387Z,100723.53
2022-12-07T04:18:49.295Z,100734.91
2022-12-07T04:21:15.903Z,100734.69
2022-12-07T04:23:42.532Z,100736.81
2022-12-07T04:26:09.303Z,100740.59
2022-12-07T04:28:36.002Z,100744.19
2022-12-07T04:31:02.728Z,100730.84
2022-12-07T04:33:29.327Z,100720.72
2022-12-07T04:35:55.896Z,100715.81
2022-12-07T04:38:22.553Z,100729.16
2022-12-07T04:40:49.135Z,100713.31
2022-12-07T04:43:15.923Z,100717.84
2022-12-07T04:45:49.493Z,100731.34
2022-12-07T04:48:16.329Z,100739.84
2022-12-07T04:50:46.191Z,100725.06
2022-12-07T04:53:13.136Z,100725.16
2022-12-07T04:55:39.750Z,100734.53
2022-12-07T04:58:06.414Z,100726.78
2022-12-07T05:00:33.071Z,100724.53
2022-12-07T05:02:59.764Z,100718.63
2022-12-07T05:05:26.454Z,100736.25
2022-12-07T05:07:53.155Z,100716.56
2022-12-07T05:10:19.976Z,100734.66
2022-12-07T05:12:46.937Z,100727.72
2022-12-07T05:15:14.503Z,100729.44
2022-12-07T05:17:41.253Z,100728.47
2022-12-07T05:20:08.984Z,100730.38
2022-12-07T05:22:36.022Z,100730.00
2022-12-07T05:25:02.854Z,100751.53
2022-12-07T05:27:29.541Z,100734.94
2022-12-07T05:29:56.178Z,100717.97
2022-12-07T05:32:22.887Z,100715.19
2022-12-07T05:34:49.453Z,100722.59
2022-12-07T05:37:16.046Z,100725.53
2022-12-07T05:39:44.354Z,100715.91
2022-12-07T05:42:15.030Z,100734.94
2022-12-07T05:44:43.705Z,100721.88
2022-12-07T05:47:10.977Z,100736.31
2022-12-07T05:49:37.757Z,100734.91
2022-12-07T05:52:05.012Z,100736.84
2022-12-07T05:54:31.825Z,100743.88
2022-12-07T05:56:58.929Z,100731.75
2022-12-07T05:59:29.001Z,100741.72
2022-12-07T06:01:58.595Z,100725.50
2022-12-07T06:04:27.526Z,100738.25
2022-12-07T06:06:54.663Z,100734.00
2022-12-07T06:09:22.763Z,100730.47
2022-12-07T06:12:08.415Z,100738.72
2022-12-07T06:14:35.764Z,100738.81
2022-12-07T06:17:02.740Z,100715.56
2022-12-07T06:19:29.480Z,100751.78
2022-12-07T06:21:57.697Z,100750.34
2022-12-07T06:24:24.405Z,100737.56
2022-12-07T06:26:51.061Z,100752.16
2022-12-07T06:29:19.189Z,100731.84
2022-12-07T06:31:46.294Z,100739.44
2022-12-07T06:34:16.046Z,100751.31
2022-12-07T06:36:42.696Z,100753.94
2022-12-07T06:39:10.110Z,100759.06
2022-12-07T06:41:38.047Z,100760.13
2022-12-07T06:44:05.987Z,100762.00
2022-12-07T06:49:12.944Z,100738.63
2022-12-07T06:51:42.260Z,100725.91
2022-12-07T06:54:14.163Z,100760.25
2022-12-07T06:56:41.164Z,100743.84
2022-12-07T06:59:08.477Z,100753.50
2022-12-07T07:01:36.865Z,100761.38
2022-12-07T07:04:04.076Z,100756.94
2022-12-07T07:06:30.885Z,100755.19
2022-12-07T07:08:57.604Z,100757.94
2022-12-07T07:11:24.197Z,100762.78
2022-12-07T07:13:50.798Z,100764.25
2022-12-07T07:16:17.700Z,100774.28
2022-12-07T07:18:44.537Z,100762.38
2022-12-07T07:21:11.196Z,100741.69
2022-12-07T07:23:37.844Z,100768.81
2022-12-07T07:26:04.571Z,100768.09
2022-12-07T07:28:31.404Z,100763.78
2022-12-07T07:30:58.139Z,100768.66
2022-12-07T07:33:24.959Z,100766.44
2022-12-07T07:35:51.609Z,100766.91
2022-12-07T07:38:18.264Z,100771.94
2022-12-07T07:40:45.128Z,100777.09
2022-12-07T07:43:11.908Z,100779.69
2022-12-07T07:45:39.093Z,100785.56
2022-12-07T07:48:06.017Z,100779.53
2022-12-07T07:50:32.682Z,100770.19
